createdAt,value
2022-08-07T00:11:20.781Z,962.31
2022-08-07T00:26:59.124Z,962.25
2022-08-07T00:42:08.432Z,962.18
2022-08-07T00:57:10.358Z,962.14
2022-08-07T01:12:28.458Z,962.06
2022-08-07T01:27:32.714Z,962
2022-08-07T01:42:37.551Z,962.04
2022-08-07T01:58:01.191Z,962.13
2022-08-07T02:13:08.835Z,962.31
2022-08-07T02:28:11.405Z,962.31
2022-08-07T02:43:13.371Z,962.46
2022-08-07T02:58:15.230Z,962.7
2022-08-07T03:13:19.781Z,962.76
2022-08-07T03:28:37.707Z,963
2022-08-07T03:43:56.746Z,963.42
2022-08-07T03:59:08.457Z,963.65
2022-08-07T04:14:37.998Z,964.03
2022-08-07T04:29:58.503Z,964.25
2022-08-07T04:45:08.092Z,964.41
2022-08-07T05:00:17.335Z,964.52
2022-08-07T05:15:23.650Z,964.72
2022-08-07T05:30:32.688Z,964.87
2022-08-07T05:45:47.008Z,964.9
2022-08-07T06:00:50.999Z,964.97
2022-08-07T06:15:53.018Z,965.14
2022-08-07T06:30:55.917Z,965.32
2022-08-07T06:46:00.820Z,965.47
2022-08-07T07:01:03.137Z,965.66
2022-08-07T07:16:06.142Z,965.81
2022-08-07T07:31:07.965Z,966
2022-08-07T07:46:39.931Z,966.14
2022-08-07T08:02:02.128Z,966.24
2022-08-07T08:18:36.834Z,966.26
2022-08-07T08:33:39.003Z,966.35
2022-08-07T08:48:45.614Z,966.44
2022-08-07T09:03:55.200Z,966.51
2022-08-07T09:18:58.835Z,966.68
2022-08-07T09:34:00.853Z,966.85
2022-08-07T09:50:01.221Z,966.95
2022-08-07T10:05:38.663Z,967.01
2022-08-07T10:21:03.283Z,967.19
2022-08-07T10:36:29.344Z,967.55
2022-08-07T10:51:57.359Z,967.7
2022-08-07T11:07:15.066Z,967.68
2022-08-07T11:22:59.002Z,967.76
2022-08-07T11:38:10.401Z,967.81
2022-08-07T11:53:14.857Z,967.84
2022-08-07T12:08:25.692Z,968.11
2022-08-07T12:24:05.069Z,968.17
2022-08-07T12:39:41.884Z,968.35
2022-08-07T12:54:55.059Z,968.42
2022-08-07T13:10:28.434Z,968.48
2022-08-07T13:25:41.667Z,968.59
2022-08-07T13:40:43.921Z,968.69
2022-08-07T13:55:54.359Z,968.81
2022-08-07T14:11:01.913Z,968.88
2022-08-07T14:26:28.079Z,968.87
2022-08-07T14:41:33.952Z,968.93
2022-08-07T14:57:22.919Z,968.98
2022-08-07T15:13:11.368Z,969
2022-08-07T15:28:31.155Z,969.09
2022-08-07T15:43:55.637Z,968.94
2022-08-07T15:58:59.066Z,968.92
2022-08-07T16:14:02.905Z,968.81
2022-08-07T16:30:06.825Z,968.76
2022-08-07T16:45:15.121Z,968.6
2022-08-07T17:00:33.314Z,968.45
2022-08-07T17:15:44.158Z,968.36
2022-08-07T17:30:58.486Z,968.14
2022-08-07T17:46:01.134Z,967.93
2022-08-07T18:01:03.516Z,967.77
2022-08-07T18:16:31.118Z,967.53
2022-08-07T18:31:40.424Z,967.26
2022-08-07T18:46:43.293Z,967.05
2022-08-07T19:02:18.366Z,966.71
2022-08-07T19:18:04.048Z,966.4
2022-08-07T19:33:12.862Z,966.26
2022-08-07T19:48:18.911Z,966.07
2022-08-07T20:03:34.053Z,965.85
2022-08-07T20:18:38.157Z,965.57
2022-08-07T20:33:42.540Z,965.36
2022-08-07T20:49:54.636Z,965.19
2022-08-07T21:05:04.629Z,964.91
2022-08-07T21:20:16.245Z,964.66
2022-08-07T21:35:34.611Z,964.44
2022-08-07T21:51:06.489Z,964.27
2022-08-07T22:06:30.345Z,963.96
2022-08-07T22:22:04.882Z,963.74
2022-08-07T22:37:13.077Z,963.43
2022-08-07T22:52:19.567Z,963.28
2022-08-07T23:07:42.107Z,963.15
2022-08-07T23:22:45.185Z,962.87
2022-08-07T23:38:00.993Z,962.75
2022-08-07T23:53:06.168Z,962.55
